Aérodrome :
LOGIN :

S'inscrire | Disclaimer

   EN    FR    IT 

 










Légende :    VFR   VFR Marginal   IFR   IFR Intensif   IFR Très Intensif
Visi : 
Plafond : 
>= 8 km
>= 3000ft
5 à 8 km
1000 à 3000 ft
1500m à 5 km
500 à 1000 ft
800 à 1500m
200 à 500 ft
< 800m
< 200 ft
Symboles :   Orages  Brouillard  Fortes neiges  Fortes précipitations  Vent > 20 kt
SIGMETs :   Divers  Orages  Givrage  Turbulence  Onde Orograph.  Cendres Volcan.






- Altitude de l'aérodrome : 2026 ft
- Code IATA : TOJ


LETO - Madrid Torrejon

DERNIER METAR :
  • 101200Z 06003KT 020V100 9999 FEW008 OVC012 12/11 Q1022 NOSIG

METARs EXPIRÉS :
  • 101100Z 08004KT 040V110 9999 -RA FEW008 OVC011 11/11 Q1022 BECMG NSW
  • 101000Z 08004KT 040V100 9000 -RA FEW006 OVC010 11/10 Q1022 BECMG NSW
  • 100900Z 08003KT 050V110 9000 -RA FEW006 OVC010 11/10 Q1022 NOSIG

TAF TAF LETO
Valide du 10 à 12h jusqu'au 11 à 12h UTC


101100Z 1012/1112 VRB05KT 9999 SCT012 BKN030 TX16/1015Z TN09/1106Z
PROB40
TEMPO 1012/1021 12008KT
PROB30
TEMPO 1012/1015 4000 DZRA SCT008 BKN012
PROB40
TEMPO 1018/1103 4000 DZRA SCT007 BKN012
BECMG 1021/1022 06006KT
BECMG 1110/1111 VRB05KT



MET'MAP, la Météo Aéronautique d'un coup d'oeil ! - Copyright ORBIFLY Décembre 2007 - Disclaimer

ORBIFLY MET'MAP TEAM :

Programmation & Développement : Alexandra Zaïnal
Sur une idée originale de : Baudouin d'Aumeries
Assistance à la programmation : Marc-Olivier Méhu
Soutien technique & logistique : Manuel Goepfert

Contact : metmap@orbifly.com




SOURCES & CREDITS :

   NOAA